sensor_id;sensor_type;location;lat;lon;timestamp;pressure;altitude;pressure_sealevel;temperature;humidity
24336;BME280;33098;52.400;16.880;2023-07-24T00:01:09;99920.66;;;20.57;54.01
24336;BME280;33098;52.400;16.880;2023-07-24T00:03:36;99922.91;;;20.58;54.27
24336;BME280;33098;52.400;16.880;2023-07-24T00:06:03;99917.32;;;20.55;54.23
24336;BME280;33098;52.400;16.880;2023-07-24T00:08:29;99918.81;;;20.48;54.42
24336;BME280;33098;52.400;16.880;2023-07-24T00:10:56;99916.77;;;20.41;54.56
24336;BME280;33098;52.400;16.880;2023-07-24T00:13:25;99915.44;;;20.33;54.82
24336;BME280;33098;52.400;16.880;2023-07-24T00:15:54;99919.78;;;20.32;55.05
24336;BME280;33098;52.400;16.880;2023-07-24T00:18:20;99920.16;;;20.31;55.24
24336;BME280;33098;52.400;16.880;2023-07-24T00:20:47;99921.98;;;20.29;55.18
24336;BME280;33098;52.400;16.880;2023-07-24T00:23:14;99918.97;;;20.33;55.28
24336;BME280;33098;52.400;16.880;2023-07-24T00:25:41;99917.30;;;20.33;55.37
24336;BME280;33098;52.400;16.880;2023-07-24T00:28:07;99911.86;;;20.29;55.48
24336;BME280;33098;52.400;16.880;2023-07-24T00:30:34;99909.55;;;20.29;55.72
24336;BME280;33098;52.400;16.880;2023-07-24T00:33:01;99901.89;;;20.29;55.79
24336;BME280;33098;52.400;16.880;2023-07-24T00:35:27;99900.95;;;20.38;55.98
24336;BME280;33098;52.400;16.880;2023-07-24T00:37:54;99904.45;;;20.34;55.92
24336;BME280;33098;52.400;16.880;2023-07-24T00:40:22;99905.28;;;20.25;56.21
24336;BME280;33098;52.400;16.880;2023-07-24T00:42:49;99900.91;;;20.23;56.29
24336;BME280;33098;52.400;16.880;2023-07-24T00:45:16;99897.88;;;20.19;56.24
24336;BME280;33098;52.400;16.880;2023-07-24T00:47:44;99896.31;;;20.21;56.60
24336;BME280;33098;52.400;16.880;2023-07-24T00:50:12;99904.23;;;20.18;56.46
24336;BME280;33098;52.400;16.880;2023-07-24T00:52:42;99904.60;;;20.05;56.66
24336;BME280;33098;52.400;16.880;2023-07-24T00:55:10;99907.86;;;20.02;56.84
24336;BME280;33098;52.400;16.880;2023-07-24T00:57:43;99908.51;;;20.11;57.09
24336;BME280;33098;52.400;16.880;2023-07-24T01:00:11;99907.09;;;20.17;57.14
24336;BME280;33098;52.400;16.880;2023-07-24T01:02:38;99906.09;;;20.11;57.07
24336;BME280;33098;52.400;16.880;2023-07-24T01:05:05;99900.16;;;20.06;57.17
24336;BME280;33098;52.400;16.880;2023-07-24T01:07:32;99890.76;;;20.01;57.49
24336;BME280;33098;52.400;16.880;2023-07-24T01:10:01;99884.86;;;20.00;57.68
24336;BME280;33098;52.400;16.880;2023-07-24T01:15:31;99885.63;;;20.00;57.80
24336;BME280;33098;52.400;16.880;2023-07-24T01:18:17;99891.21;;;19.99;58.19
24336;BME280;33098;52.400;16.880;2023-07-24T01:20:50;99897.89;;;19.87;58.34
24336;BME280;33098;52.400;16.880;2023-07-24T01:26:02;99902.28;;;19.82;58.82
24336;BME280;33098;52.400;16.880;2023-07-24T01:28:29;99903.23;;;19.84;58.77
24336;BME280;33098;52.400;16.880;2023-07-24T01:30:56;99901.10;;;19.80;58.94
24336;BME280;33098;52.400;16.880;2023-07-24T01:33:25;99900.94;;;19.82;59.24
24336;BME280;33098;52.400;16.880;2023-07-24T01:35:57;99894.56;;;19.79;59.32
24336;BME280;33098;52.400;16.880;2023-07-24T01:38:25;99892.05;;;19.79;59.25
24336;BME280;33098;52.400;16.880;2023-07-24T01:40:53;99886.23;;;19.78;59.48
24336;BME280;33098;52.400;16.880;2023-07-24T01:43:25;99888.83;;;19.81;59.59
24336;BME280;33098;52.400;16.880;2023-07-24T01:45:58;99888.60;;;19.85;59.63
24336;BME280;33098;52.400;16.880;2023-07-24T01:48:25;99886.79;;;19.92;59.52
24336;BME280;33098;52.400;16.880;2023-07-24T01:50:54;99883.35;;;19.98;59.62
24336;BME280;33098;52.400;16.880;2023-07-24T01:53:21;99878.30;;;20.06;59.46
24336;BME280;33098;52.400;16.880;2023-07-24T01:55:47;99876.18;;;20.08;59.35
24336;BME280;33098;52.400;16.880;2023-07-24T01:58:14;99876.33;;;20.09;59.21
24336;BME280;33098;52.400;16.880;2023-07-24T02:00:41;99875.73;;;20.14;59.63
24336;BME280;33098;52.400;16.880;2023-07-24T02:03:07;99879.95;;;20.18;59.76
24336;BME280;33098;52.400;16.880;2023-07-24T02:05:34;99881.47;;;20.14;59.87
24336;BME280;33098;52.400;16.880;2023-07-24T02:08:04;99875.11;;;20.08;59.95
24336;BME280;33098;52.400;16.880;2023-07-24T02:10:31;99873.42;;;20.05;60.31
24336;BME280;33098;52.400;16.880;2023-07-24T02:12:58;99874.92;;;20.06;60.53
24336;BME280;33098;52.400;16.880;2023-07-24T02:15:24;99875.23;;;20.08;60.49
24336;BME280;33098;52.400;16.880;2023-07-24T02:17:54;99874.42;;;20.12;60.70
24336;BME280;33098;52.400;16.880;2023-07-24T02:20:20;99871.08;;;20.21;60.69
24336;BME280;33098;52.400;16.880;2023-07-24T02:22:48;99868.22;;;20.31;60.79
24336;BME280;33098;52.400;16.880;2023-07-24T02:25:14;99871.33;;;20.40;60.70
24336;BME280;33098;52.400;16.880;2023-07-24T02:27:41;99869.30;;;20.45;60.57
24336;BME280;33098;52.400;16.880;2023-07-24T02:30:09;99866.80;;;20.47;60.61
24336;BME280;33098;52.400;16.880;2023-07-24T02:32:36;99862.59;;;20.51;60.44
24336;BME280;33098;52.400;16.880;2023-07-24T02:35:03;99862.89;;;20.52;60.45
24336;BME280;33098;52.400;16.880;2023-07-24T02:37:29;99860.49;;;20.49;60.66
24336;BME280;33098;52.400;16.880;2023-07-24T02:39:56;99860.51;;;20.51;60.68
24336;BME280;33098;52.400;16.880;2023-07-24T02:42:23;99855.60;;;20.56;60.53
24336;BME280;33098;52.400;16.880;2023-07-24T02:44:51;99854.64;;;20.59;60.56
24336;BME280;33098;52.400;16.880;2023-07-24T02:47:20;99855.61;;;20.61;60.59
24336;BME280;33098;52.400;16.880;2023-07-24T02:49:47;99856.44;;;20.60;60.43
24336;BME280;33098;52.400;16.880;2023-07-24T02:52:19;99855.05;;;20.56;60.53
24336;BME280;33098;52.400;16.880;2023-07-24T02:54:46;99856.83;;;20.53;60.51
24336;BME280;33098;52.400;16.880;2023-07-24T02:57:12;99858.25;;;20.56;60.67
24336;BME280;33098;52.400;16.880;2023-07-24T02:59:41;99855.49;;;20.62;60.58
24336;BME280;33098;52.400;16.880;2023-07-24T03:02:11;99855.05;;;20.65;60.69
24336;BME280;33098;52.400;16.880;2023-07-24T03:04:37;99858.95;;;20.66;60.87
24336;BME280;33098;52.400;16.880;2023-07-24T03:07:04;99852.70;;;20.68;60.67
24336;BME280;33098;52.400;16.880;2023-07-24T03:09:31;99850.33;;;20.73;60.80
24336;BME280;33098;52.400;16.880;2023-07-24T03:11:57;99844.04;;;20.72;60.95
24336;BME280;33098;52.400;16.880;2023-07-24T03:14:26;99837.55;;;20.72;61.03
24336;BME280;33098;52.400;16.880;2023-07-24T03:16:54;99834.17;;;20.72;61.06
24336;BME280;33098;52.400;16.880;2023-07-24T03:19:21;99835.55;;;20.68;61.06
24336;BME280;33098;52.400;16.880;2023-07-24T03:21:48;99828.34;;;20.63;61.06
24336;BME280;33098;52.400;16.880;2023-07-24T03:24:15;99831.47;;;20.68;61.11
24336;BME280;33098;52.400;16.880;2023-07-24T03:26:42;99829.21;;;20.67;61.06
24336;BME280;33098;52.400;16.880;2023-07-24T03:29:09;99833.54;;;20.70;61.08
24336;BME280;33098;52.400;16.880;2023-07-24T03:31:42;99828.84;;;20.67;60.86
24336;BME280;33098;52.400;16.880;2023-07-24T03:34:08;99825.62;;;20.64;60.89
24336;BME280;33098;52.400;16.880;2023-07-24T03:36:35;99822.67;;;20.65;60.84
24336;BME280;33098;52.400;16.880;2023-07-24T03:39:09;99826.14;;;20.66;60.76
24336;BME280;33098;52.400;16.880;2023-07-24T03:41:37;99828.41;;;20.69;60.59
24336;BME280;33098;52.400;16.880;2023-07-24T03:44:04;99831.98;;;20.67;60.38
24336;BME280;33098;52.400;16.880;2023-07-24T03:46:34;99829.67;;;20.63;60.48
24336;BME280;33098;52.400;16.880;2023-07-24T03:49:01;99826.05;;;20.65;60.60
24336;BME280;33098;52.400;16.880;2023-07-24T03:51:33;99819.17;;;20.65;60.41
24336;BME280;33098;52.400;16.880;2023-07-24T03:54:00;99817.59;;;20.63;60.49
24336;BME280;33098;52.400;16.880;2023-07-24T03:56:26;99812.69;;;20.63;60.62
24336;BME280;33098;52.400;16.880;2023-07-24T03:58:55;99813.30;;;20.59;60.56
24336;BME280;33098;52.400;16.880;2023-07-24T04:01:22;99818.05;;;20.53;60.60
24336;BME280;33098;52.400;16.880;2023-07-24T04:03:49;99821.01;;;20.52;60.86
24336;BME280;33098;52.400;16.880;2023-07-24T04:06:18;99821.78;;;20.50;60.80
24336;BME280;33098;52.400;16.880;2023-07-24T04:08:44;99817.34;;;20.52;60.74
24336;BME280;33098;52.400;16.880;2023-07-24T04:11:11;99813.83;;;20.46;60.92
24336;BME280;33098;52.400;16.880;2023-07-24T04:13:41;99814.84;;;20.42;61.13
24336;BME280;33098;52.400;16.880;2023-07-24T04:16:12;99812.88;;;20.39;61.38
24336;BME280;33098;52.400;16.880;2023-07-24T04:18:39;99810.52;;;20.40;61.27
24336;BME280;33098;52.400;16.880;2023-07-24T04:21:06;99807.23;;;20.41;61.34
24336;BME280;33098;52.400;16.880;2023-07-24T04:23:33;99811.14;;;20.42;61.53
24336;BME280;33098;52.400;16.880;2023-07-24T04:26:02;99810.36;;;20.43;61.73
24336;BME280;33098;52.400;16.880;2023-07-24T04:28:29;99812.16;;;20.43;61.62
24336;BME280;33098;52.400;16.880;2023-07-24T04:31:00;99809.28;;;20.43;61.71
24336;BME280;33098;52.400;16.880;2023-07-24T04:33:28;99812.86;;;20.48;61.69
24336;BME280;33098;52.400;16.880;2023-07-24T04:35:55;99811.74;;;20.48;61.72
24336;BME280;33098;52.400;16.880;2023-07-24T04:38:26;99812.42;;;20.48;61.90
24336;BME280;33098;52.400;16.880;2023-07-24T04:40:54;99816.97;;;20.42;62.03
24336;BME280;33098;52.400;16.880;2023-07-24T04:43:21;99820.32;;;20.36;62.17
24336;BME280;33098;52.400;16.880;2023-07-24T04:45:48;99817.98;;;20.30;62.11
24336;BME280;33098;52.400;16.880;2023-07-24T04:48:19;99815.91;;;20.30;62.22
24336;BME280;33098;52.400;16.880;2023-07-24T04:50:55;99815.20;;;20.31;62.31
24336;BME280;33098;52.400;16.880;2023-07-24T04:53:23;99811.92;;;20.32;62.26
24336;BME280;33098;52.400;16.880;2023-07-24T04:55:50;99811.20;;;20.37;62.33
24336;BME280;33098;52.400;16.880;2023-07-24T04:58:19;99815.44;;;20.43;62.28
24336;BME280;33098;52.400;16.880;2023-07-24T05:00:50;99826.48;;;20.47;62.22
24336;BME280;33098;52.400;16.880;2023-07-24T05:03:17;99844.86;;;20.47;62.19
24336;BME280;33098;52.400;16.880;2023-07-24T05:05:48;99829.48;;;20.51;62.55
24336;BME280;33098;52.400;16.880;2023-07-24T05:08:18;99826.29;;;20.53;62.89
24336;BME280;33098;52.400;16.880;2023-07-24T05:10:54;99844.02;;;20.49;63.66
24336;BME280;33098;52.400;16.880;2023-07-24T05:13:22;99840.03;;;20.46;63.84
24336;BME280;33098;52.400;16.880;2023-07-24T05:15:52;99829.61;;;20.45;64.32
24336;BME280;33098;52.400;16.880;2023-07-24T05:18:19;99826.77;;;20.42;64.63
24336;BME280;33098;52.400;16.880;2023-07-24T05:20:46;99826.69;;;20.47;64.91
24336;BME280;33098;52.400;16.880;2023-07-24T05:23:19;99815.33;;;20.47;65.19
24336;BME280;33098;52.400;16.880;2023-07-24T05:25:59;99808.09;;;20.48;65.84
24336;BME280;33098;52.400;16.880;2023-07-24T05:28:27;99800.47;;;20.57;66.56
24336;BME280;33098;52.400;16.880;2023-07-24T05:31:04;99799.34;;;20.71;67.07
24336;BME280;33098;52.400;16.880;2023-07-24T05:33:32;99797.78;;;20.75;67.11
24336;BME280;33098;52.400;16.880;2023-07-24T05:36:03;99795.05;;;20.82;67.13
24336;BME280;33098;52.400;16.880;2023-07-24T05:38:33;99792.99;;;20.93;67.13
24336;BME280;33098;52.400;16.880;2023-07-24T05:41:02;99789.27;;;21.02;66.95
24336;BME280;33098;52.400;16.880;2023-07-24T05:43:29;99792.02;;;21.09;66.66
24336;BME280;33098;52.400;16.880;2023-07-24T05:45:59;99790.40;;;21.04;66.10
24336;BME280;33098;52.400;16.880;2023-07-24T05:48:30;99789.04;;;21.08;66.18
24336;BME280;33098;52.400;16.880;2023-07-24T05:50:57;99784.16;;;21.15;65.85
24336;BME280;33098;52.400;16.880;2023-07-24T05:53:23;99785.09;;;21.24;65.59
24336;BME280;33098;52.400;16.880;2023-07-24T05:55:58;99781.27;;;21.34;65.17
24336;BME280;33098;52.400;16.880;2023-07-24T05:58:29;99776.63;;;21.42;64.35
24336;BME280;33098;52.400;16.880;2023-07-24T06:00:56;99767.96;;;21.48;64.24
24336;BME280;33098;52.400;16.880;2023-07-24T06:03:24;99770.66;;;21.57;63.62
24336;BME280;33098;52.400;16.880;2023-07-24T06:05:54;99765.39;;;21.57;63.16
24336;BME280;33098;52.400;16.880;2023-07-24T06:08:25;99768.40;;;21.66;63.11
24336;BME280;33098;52.400;16.880;2023-07-24T06:10:52;99765.64;;;21.78;62.78
24336;BME280;33098;52.400;16.880;2023-07-24T06:13:19;99761.34;;;21.80;62.23
24336;BME280;33098;52.400;16.880;2023-07-24T06:15:49;99759.67;;;21.80;62.11
24336;BME280;33098;52.400;16.880;2023-07-24T06:18:17;99756.32;;;21.88;61.93
24336;BME280;33098;52.400;16.880;2023-07-24T06:20:43;99750.59;;;21.97;61.66
24336;BME280;33098;52.400;16.880;2023-07-24T06:23:10;99747.66;;;22.02;61.38
24336;BME280;33098;52.400;16.880;2023-07-24T06:25:37;99748.84;;;22.11;60.95
24336;BME280;33098;52.400;16.880;2023-07-24T06:28:03;99749.80;;;22.20;60.78
24336;BME280;33098;52.400;16.880;2023-07-24T06:30:30;99749.23;;;22.30;60.56
24336;BME280;33098;52.400;16.880;2023-07-24T06:32:56;99756.55;;;22.40;60.06
24336;BME280;33098;52.400;16.880;2023-07-24T06:35:23;99754.91;;;22.44;60.01
24336;BME280;33098;52.400;16.880;2023-07-24T06:37:53;99752.24;;;22.43;59.76
24336;BME280;33098;52.400;16.880;2023-07-24T06:40:19;99749.56;;;22.45;59.61
24336;BME280;33098;52.400;16.880;2023-07-24T06:42:46;99744.74;;;22.49;59.61
24336;BME280;33098;52.400;16.880;2023-07-24T06:45:13;99746.10;;;22.54;59.48
24336;BME280;33098;52.400;16.880;2023-07-24T06:47:39;99742.23;;;22.59;59.41
24336;BME280;33098;52.400;16.880;2023-07-24T06:50:07;99736.48;;;22.65;59.64
24336;BME280;33098;52.400;16.880;2023-07-24T06:52:36;99736.11;;;22.69;59.25
24336;BME280;33098;52.400;16.880;2023-07-24T06:55:11;99733.04;;;22.68;59.18
24336;BME280;33098;52.400;16.880;2023-07-24T06:57:37;99728.20;;;22.75;58.99
24336;BME280;33098;52.400;16.880;2023-07-24T07:00:09;99724.00;;;22.79;59.15
24336;BME280;33098;52.400;16.880;2023-07-24T07:02:40;99722.40;;;22.86;59.27
24336;BME280;33098;52.400;16.880;2023-07-24T07:05:07;99717.05;;;22.88;58.76
24336;BME280;33098;52.400;16.880;2023-07-24T07:07:39;99713.94;;;22.86;58.84
24336;BME280;33098;52.400;16.880;2023-07-24T07:10:08;99713.29;;;22.88;58.66
24336;BME280;33098;52.400;16.880;2023-07-24T07:12:38;99713.37;;;22.89;58.71
24336;BME280;33098;52.400;16.880;2023-07-24T07:15:05;99715.64;;;22.93;58.73
24336;BME280;33098;52.400;16.880;2023-07-24T07:17:32;99713.83;;;22.95;58.69
24336;BME280;33098;52.400;16.880;2023-07-24T07:19:58;99709.37;;;23.04;58.51
24336;BME280;33098;52.400;16.880;2023-07-24T07:22:25;99712.10;;;23.13;58.47
24336;BME280;33098;52.400;16.880;2023-07-24T07:24:53;99710.08;;;23.18;58.16
24336;BME280;33098;52.400;16.880;2023-07-24T07:27:22;99707.38;;;23.27;58.38
24336;BME280;33098;52.400;16.880;2023-07-24T07:29:49;99703.39;;;23.37;58.23
24336;BME280;33098;52.400;16.880;2023-07-24T07:32:15;99699.97;;;23.46;58.24
24336;BME280;33098;52.400;16.880;2023-07-24T07:34:43;99695.34;;;23.50;57.93
24336;BME280;33098;52.400;16.880;2023-07-24T07:37:13;99695.29;;;23.54;58.04
24336;BME280;33098;52.400;16.880;2023-07-24T07:39:39;99701.80;;;23.59;57.92
24336;BME280;33098;52.400;16.880;2023-07-24T07:42:09;99698.49;;;23.56;57.73
24336;BME280;33098;52.400;16.880;2023-07-24T07:44:35;99700.91;;;23.60;57.99
24336;BME280;33098;52.400;16.880;2023-07-24T07:47:03;99704.73;;;23.70;57.83
24336;BME280;33098;52.400;16.880;2023-07-24T07:49:32;99706.20;;;23.78;57.73
24336;BME280;33098;52.400;16.880;2023-07-24T07:52:02;99704.72;;;23.86;57.47
24336;BME280;33098;52.400;16.880;2023-07-24T07:54:29;99706.92;;;23.94;57.27
24336;BME280;33098;52.400;16.880;2023-07-24T07:56:55;99703.23;;;24.02;57.14
24336;BME280;33098;52.400;16.880;2023-07-24T07:59:22;99701.99;;;24.08;57.18
24336;BME280;33098;52.400;16.880;2023-07-24T08:01:49;99704.46;;;24.08;56.93
24336;BME280;33098;52.400;16.880;2023-07-24T08:04:17;99702.70;;;23.98;56.55
24336;BME280;33098;52.400;16.880;2023-07-24T08:06:45;99703.23;;;23.90;56.86
24336;BME280;33098;52.400;16.880;2023-07-24T08:09:15;99696.71;;;23.92;56.97
24336;BME280;33098;52.400;16.880;2023-07-24T08:11:43;99693.42;;;23.97;56.97
24336;BME280;33098;52.400;16.880;2023-07-24T08:14:10;99686.71;;;24.06;57.14
24336;BME280;33098;52.400;16.880;2023-07-24T08:16:37;99686.54;;;24.13;56.76
24336;BME280;33098;52.400;16.880;2023-07-24T08:19:04;99686.27;;;24.18;56.68
24336;BME280;33098;52.400;16.880;2023-07-24T08:21:31;99686.19;;;24.24;56.28
24336;BME280;33098;52.400;16.880;2023-07-24T08:24:01;99683.73;;;24.27;56.13
24336;BME280;33098;52.400;16.880;2023-07-24T08:26:29;99681.81;;;24.29;55.79
24336;BME280;33098;52.400;16.880;2023-07-24T08:28:58;99675.77;;;24.33;55.79
24336;BME280;33098;52.400;16.880;2023-07-24T08:31:29;99674.67;;;24.40;55.77
24336;BME280;33098;52.400;16.880;2023-07-24T08:33:59;99671.79;;;24.49;55.60
24336;BME280;33098;52.400;16.880;2023-07-24T08:36:28;99664.98;;;24.54;54.98
24336;BME280;33098;52.400;16.880;2023-07-24T08:38:55;99672.14;;;24.60;54.67
24336;BME280;33098;52.400;16.880;2023-07-24T08:41:24;99673.24;;;24.68;54.37
24336;BME280;33098;52.400;16.880;2023-07-24T08:43:56;99673.40;;;24.74;53.84
24336;BME280;33098;52.400;16.880;2023-07-24T08:46:24;99684.98;;;24.83;53.59
24336;BME280;33098;52.400;16.880;2023-07-24T08:48:56;99685.92;;;24.87;53.24
24336;BME280;33098;52.400;16.880;2023-07-24T08:51:24;99683.02;;;24.96;53.45
24336;BME280;33098;52.400;16.880;2023-07-24T08:53:51;99687.77;;;25.05;53.29
24336;BME280;33098;52.400;16.880;2023-07-24T08:56:20;99682.23;;;25.11;53.01
24336;BME280;33098;52.400;16.880;2023-07-24T08:58:50;99678.27;;;25.20;53.02
24336;BME280;33098;52.400;16.880;2023-07-24T09:01:22;99672.68;;;25.28;52.36
24336;BME280;33098;52.400;16.880;2023-07-24T09:03:49;99662.48;;;25.30;52.27
24336;BME280;33098;52.400;16.880;2023-07-24T09:06:16;99663.33;;;25.42;52.47
24336;BME280;33098;52.400;16.880;2023-07-24T09:08:43;99661.17;;;25.56;52.14
24336;BME280;33098;52.400;16.880;2023-07-24T09:11:13;99655.23;;;25.66;52.05
24336;BME280;33098;52.400;16.880;2023-07-24T09:13:45;99658.48;;;25.78;51.79
24336;BME280;33098;52.400;16.880;2023-07-24T09:16:25;99658.45;;;25.87;51.35
24336;BME280;33098;52.400;16.880;2023-07-24T09:18:52;99650.36;;;25.91;50.72
24336;BME280;33098;52.400;16.880;2023-07-24T09:21:29;99648.11;;;25.97;50.65
24336;BME280;33098;52.400;16.880;2023-07-24T09:23:56;99650.17;;;26.06;50.98
24336;BME280;33098;52.400;16.880;2023-07-24T09:26:25;99647.20;;;26.19;50.64
24336;BME280;33098;52.400;16.880;2023-07-24T09:28:53;99643.73;;;26.28;50.32
24336;BME280;33098;52.400;16.880;2023-07-24T09:31:20;99641.43;;;26.37;50.23
24336;BME280;33098;52.400;16.880;2023-07-24T09:33:47;99642.05;;;26.47;49.99
24336;BME280;33098;52.400;16.880;2023-07-24T09:36:14;99641.27;;;26.59;49.76
24336;BME280;33098;52.400;16.880;2023-07-24T09:38:41;99635.40;;;26.69;49.88
24336;BME280;33098;52.400;16.880;2023-07-24T09:41:11;99635.60;;;26.81;49.64
24336;BME280;33098;52.400;16.880;2023-07-24T09:43:41;99630.36;;;26.87;49.14
24336;BME280;33098;52.400;16.880;2023-07-24T09:46:09;99622.23;;;26.88;48.99
24336;BME280;33098;52.400;16.880;2023-07-24T09:48:36;99619.61;;;26.91;48.53
24336;BME280;33098;52.400;16.880;2023-07-24T09:51:11;99616.33;;;26.95;48.52
24336;BME280;33098;52.400;16.880;2023-07-24T09:53:55;99607.05;;;27.02;48.26
24336;BME280;33098;52.400;16.880;2023-07-24T09:56:23;99608.06;;;27.08;47.98
24336;BME280;33098;52.400;16.880;2023-07-24T09:58:59;99605.81;;;27.07;47.54
24336;BME280;33098;52.400;16.880;2023-07-24T10:01:27;99602.46;;;27.10;47.91
24336;BME280;33098;52.400;16.880;2023-07-24T10:03:55;99599.69;;;27.15;47.77
24336;BME280;33098;52.400;16.880;2023-07-24T10:06:22;99607.33;;;27.21;47.53
24336;BME280;33098;52.400;16.880;2023-07-24T10:08:51;99612.63;;;27.19;46.52
24336;BME280;33098;52.400;16.880;2023-07-24T10:11:23;99607.66;;;27.15;47.07
24336;BME280;33098;52.400;16.880;2023-07-24T10:13:52;99608.02;;;27.29;46.80
24336;BME280;33098;52.400;16.880;2023-07-24T10:16:25;99608.41;;;27.34;46.11
24336;BME280;33098;52.400;16.880;2023-07-24T10:18:51;99602.70;;;27.35;46.53
24336;BME280;33098;52.400;16.880;2023-07-24T10:21:28;99604.08;;;27.42;46.19
24336;BME280;33098;52.400;16.880;2023-07-24T10:23:59;99605.96;;;27.58;46.56
24336;BME280;33098;52.400;16.880;2023-07-24T10:26:29;99611.67;;;27.72;45.76
24336;BME280;33098;52.400;16.880;2023-07-24T10:28:58;99608.32;;;27.76;45.36
24336;BME280;33098;52.400;16.880;2023-07-24T10:31:32;99607.38;;;27.88;45.91
24336;BME280;33098;52.400;16.880;2023-07-24T10:34:05;99605.61;;;28.06;45.82
24336;BME280;33098;52.400;16.880;2023-07-24T10:36:36;99605.41;;;28.22;45.38
24336;BME280;33098;52.400;16.880;2023-07-24T10:39:17;99601.21;;;28.30;45.18
24336;BME280;33098;52.400;16.880;2023-07-24T10:41:47;99598.48;;;28.41;44.64
24336;BME280;33098;52.400;16.880;2023-07-24T10:44:30;99598.04;;;28.41;44.52
24336;BME280;33098;52.400;16.880;2023-07-24T10:46:57;99597.86;;;28.46;44.15
24336;BME280;33098;52.400;16.880;2023-07-24T10:49:27;99595.16;;;28.51;44.46
24336;BME280;33098;52.400;16.880;2023-07-24T10:51:59;99587.36;;;28.60;44.52
24336;BME280;33098;52.400;16.880;2023-07-24T10:54:26;99585.35;;;28.63;44.12
24336;BME280;33098;52.400;16.880;2023-07-24T10:57:00;99591.36;;;28.71;44.14
24336;BME280;33098;52.400;16.880;2023-07-24T10:59:39;99583.52;;;28.70;43.70
24336;BME280;33098;52.400;16.880;2023-07-24T11:02:10;99582.90;;;28.59;43.30
24336;BME280;33098;52.400;16.880;2023-07-24T11:04:42;99581.52;;;28.55;43.78
24336;BME280;33098;52.400;16.880;2023-07-24T11:07:09;99588.28;;;28.54;42.71
24336;BME280;33098;52.400;16.880;2023-07-24T11:09:36;99587.50;;;28.44;43.39
24336;BME280;33098;52.400;16.880;2023-07-24T11:14:51;99579.61;;;28.32;43.59
24336;BME280;33098;52.400;16.880;2023-07-24T11:17:20;99575.88;;;28.37;43.74
24336;BME280;33098;52.400;16.880;2023-07-24T11:19:47;99574.30;;;28.37;43.47
24336;BME280;33098;52.400;16.880;2023-07-24T11:22:21;99569.52;;;28.43;43.97
24336;BME280;33098;52.400;16.880;2023-07-24T11:24:50;99566.20;;;28.63;43.59
24336;BME280;33098;52.400;16.880;2023-07-24T11:27:17;99565.89;;;28.81;43.26
24336;BME280;33098;52.400;16.880;2023-07-24T11:29:48;99564.67;;;28.86;42.58
24336;BME280;33098;52.400;16.880;2023-07-24T11:32:19;99552.10;;;28.90;43.36
24336;BME280;33098;52.400;16.880;2023-07-24T11:34:52;99551.59;;;29.07;42.78
24336;BME280;33098;52.400;16.880;2023-07-24T11:37:20;99548.98;;;29.11;42.57
24336;BME280;33098;52.400;16.880;2023-07-24T11:39:56;99551.55;;;29.09;42.10
24336;BME280;33098;52.400;16.880;2023-07-24T11:42:27;99543.47;;;29.04;42.12
24336;BME280;33098;52.400;16.880;2023-07-24T11:44:54;99536.65;;;29.11;42.28
24336;BME280;33098;52.400;16.880;2023-07-24T11:47:21;99541.18;;;29.16;42.28
24336;BME280;33098;52.400;16.880;2023-07-24T11:50:04;99543.96;;;29.13;41.78
24336;BME280;33098;52.400;16.880;2023-07-24T11:52:45;99531.14;;;29.06;41.89
24336;BME280;33098;52.400;16.880;2023-07-24T11:55:13;99525.52;;;29.19;42.09
24336;BME280;33098;52.400;16.880;2023-07-24T11:57:41;99519.65;;;29.37;42.15
24336;BME280;33098;52.400;16.880;2023-07-24T12:00:22;99519.52;;;29.44;41.64
24336;BME280;33098;52.400;16.880;2023-07-24T12:02:50;99512.18;;;29.52;41.70
24336;BME280;33098;52.400;16.880;2023-07-24T12:05:20;99511.17;;;29.61;41.31
24336;BME280;33098;52.400;16.880;2023-07-24T12:07:48;99506.45;;;29.60;40.97
24336;BME280;33098;52.400;16.880;2023-07-24T12:10:25;99498.07;;;29.60;40.83
24336;BME280;33098;52.400;16.880;2023-07-24T12:13:00;99498.23;;;29.60;40.70
24336;BME280;33098;52.400;16.880;2023-07-24T12:15:26;99493.45;;;29.60;40.54
24336;BME280;33098;52.400;16.880;2023-07-24T12:17:53;99496.77;;;29.68;40.39
24336;BME280;33098;52.400;16.880;2023-07-24T12:20:20;99485.97;;;29.75;40.57
24336;BME280;33098;52.400;16.880;2023-07-24T12:22:47;99482.80;;;29.85;40.29
24336;BME280;33098;52.400;16.880;2023-07-24T12:25:16;99471.11;;;29.87;39.93
24336;BME280;33098;52.400;16.880;2023-07-24T12:27:43;99470.83;;;29.97;39.99
24336;BME280;33098;52.400;16.880;2023-07-24T12:30:09;99473.30;;;30.04;39.74
24336;BME280;33098;52.400;16.880;2023-07-24T12:32:40;99465.17;;;30.13;39.88
24336;BME280;33098;52.400;16.880;2023-07-24T12:35:08;99456.39;;;30.30;40.06
24336;BME280;33098;52.400;16.880;2023-07-24T12:37:36;99450.32;;;30.57;39.55
24336;BME280;33098;52.400;16.880;2023-07-24T12:40:06;99446.13;;;30.83;39.46
24336;BME280;33098;52.400;16.880;2023-07-24T12:42:39;99438.20;;;31.04;38.32
24336;BME280;33098;52.400;16.880;2023-07-24T12:45:07;99434.77;;;31.12;38.04
24336;BME280;33098;52.400;16.880;2023-07-24T12:47:36;99428.73;;;31.11;37.54
24336;BME280;33098;52.400;16.880;2023-07-24T12:50:05;99429.93;;;31.13;38.20
24336;BME280;33098;52.400;16.880;2023-07-24T12:52:34;99428.79;;;31.23;38.11
24336;BME280;33098;52.400;16.880;2023-07-24T12:55:05;99427.70;;;31.20;37.61
24336;BME280;33098;52.400;16.880;2023-07-24T12:57:31;99432.38;;;31.18;37.02
24336;BME280;33098;52.400;16.880;2023-07-24T13:00:08;99432.60;;;31.17;37.03
24336;BME280;33098;52.400;16.880;2023-07-24T13:02:35;99431.54;;;31.31;37.56
24336;BME280;33098;52.400;16.880;2023-07-24T13:05:02;99423.88;;;31.69;37.03
24336;BME280;33098;52.400;16.880;2023-07-24T13:07:29;99413.91;;;32.12;36.91